sensor_id;sensor_type;location;lat;lon;timestamp;P1;durP1;ratioP1;P2;durP2;ratioP2
793;SDS011;380;48.738;9.214;2023-05-10T00:00:26;0.60;;;0.30;;
793;SDS011;380;48.738;9.214;2023-05-10T00:02:52;0.82;;;0.40;;
793;SDS011;380;48.738;9.214;2023-05-10T00:05:18;0.82;;;0.40;;
793;SDS011;380;48.738;9.214;2023-05-10T00:07:44;0.82;;;0.40;;
793;SDS011;380;48.738;9.214;2023-05-10T00:10:10;0.80;;;0.40;;
793;SDS011;380;48.738;9.214;2023-05-10T00:12:36;2.17;;;0.47;;
793;SDS011;380;48.738;9.214;2023-05-10T00:15:02;0.57;;;0.30;;
793;SDS011;380;48.738;9.214;2023-05-10T00:17:29;0.50;;;0.20;;
793;SDS011;380;48.738;9.214;2023-05-10T00:19:54;0.93;;;0.25;;
793;SDS011;380;48.738;9.214;2023-05-10T00:22:21;0.57;;;0.35;;
793;SDS011;380;48.738;9.214;2023-05-10T00:24:47;0.80;;;0.38;;
793;SDS011;380;48.738;9.214;2023-05-10T00:27:12;0.68;;;0.30;;
793;SDS011;380;48.738;9.214;2023-05-10T00:29:38;0.75;;;0.30;;
793;SDS011;380;48.738;9.214;2023-05-10T00:32:04;2.22;;;0.60;;
793;SDS011;380;48.738;9.214;2023-05-10T00:34:31;0.38;;;0.28;;
793;SDS011;380;48.738;9.214;2023-05-10T00:36:57;4.80;;;0.30;;
793;SDS011;380;48.738;9.214;2023-05-10T00:39:23;0.38;;;0.20;;
793;SDS011;380;48.738;9.214;2023-05-10T00:41:49;0.47;;;0.30;;
793;SDS011;380;48.738;9.214;2023-05-10T00:44:15;0.60;;;0.20;;
793;SDS011;380;48.738;9.214;2023-05-10T00:46:41;0.63;;;0.20;;
793;SDS011;380;48.738;9.214;2023-05-10T00:49:07;0.47;;;0.20;;
793;SDS011;380;48.738;9.214;2023-05-10T00:51:33;0.93;;;0.20;;
793;SDS011;380;48.738;9.214;2023-05-10T00:53:59;0.10;;;0.10;;
793;SDS011;380;48.738;9.214;2023-05-10T00:56:25;0.10;;;0.10;;
793;SDS011;380;48.738;9.214;2023-05-10T00:58:53;1.95;;;0.10;;
793;SDS011;380;48.738;9.214;2023-05-10T01:01:19;0.40;;;0.10;;
793;SDS011;380;48.738;9.214;2023-05-10T01:03:45;0.25;;;0.10;;
793;SDS011;380;48.738;9.214;2023-05-10T01:06:12;0.50;;;0.30;;
793;SDS011;380;48.738;9.214;2023-05-10T01:08:38;0.22;;;0.10;;
793;SDS011;380;48.738;9.214;2023-05-10T01:11:04;0.25;;;0.10;;
793;SDS011;380;48.738;9.214;2023-05-10T01:13:32;0.40;;;0.10;;
793;SDS011;380;48.738;9.214;2023-05-10T01:15:59;2.72;;;0.35;;
793;SDS011;380;48.738;9.214;2023-05-10T01:18:28;0.38;;;0.10;;
793;SDS011;380;48.738;9.214;2023-05-10T01:20:59;0.10;;;0.10;;
793;SDS011;380;48.738;9.214;2023-05-10T01:31:06;0.20;;;0.15;;
793;SDS011;380;48.738;9.214;2023-05-10T01:33:48;0.32;;;0.13;;
793;SDS011;380;48.738;9.214;2023-05-10T01:36:26;0.10;;;0.10;;
793;SDS011;380;48.738;9.214;2023-05-10T01:39:01;0.30;;;0.15;;
793;SDS011;380;48.738;9.214;2023-05-10T01:41:38;0.40;;;0.10;;
793;SDS011;380;48.738;9.214;2023-05-10T01:46:41;0.30;;;0.10;;
793;SDS011;380;48.738;9.214;2023-05-10T01:49:11;0.20;;;0.10;;
793;SDS011;380;48.738;9.214;2023-05-10T01:51:41;0.13;;;0.00;;
793;SDS011;380;48.738;9.214;2023-05-10T01:54:11;0.40;;;0.20;;
793;SDS011;380;48.738;9.214;2023-05-10T01:56:38;2.30;;;0.10;;
793;SDS011;380;48.738;9.214;2023-05-10T01:59:06;0.52;;;0.20;;
793;SDS011;380;48.738;9.214;2023-05-10T02:01:34;0.15;;;0.10;;
793;SDS011;380;48.738;9.214;2023-05-10T02:04:02;0.60;;;0.20;;
793;SDS011;380;48.738;9.214;2023-05-10T02:06:28;0.17;;;0.10;;
793;SDS011;380;48.738;9.214;2023-05-10T02:08:54;0.30;;;0.13;;
793;SDS011;380;48.738;9.214;2023-05-10T02:11:20;0.20;;;0.10;;
793;SDS011;380;48.738;9.214;2023-05-10T02:13:47;0.25;;;0.20;;
793;SDS011;380;48.738;9.214;2023-05-10T02:16:13;0.10;;;0.10;;
793;SDS011;380;48.738;9.214;2023-05-10T02:18:40;0.30;;;0.10;;
793;SDS011;380;48.738;9.214;2023-05-10T02:21:06;0.25;;;0.10;;
793;SDS011;380;48.738;9.214;2023-05-10T02:23:33;0.22;;;0.13;;
793;SDS011;380;48.738;9.214;2023-05-10T02:26:00;0.35;;;0.17;;
793;SDS011;380;48.738;9.214;2023-05-10T02:28:27;0.25;;;0.10;;
793;SDS011;380;48.738;9.214;2023-05-10T02:30:53;0.38;;;0.10;;
793;SDS011;380;48.738;9.214;2023-05-10T02:33:19;0.20;;;0.10;;
793;SDS011;380;48.738;9.214;2023-05-10T02:35:46;0.32;;;0.10;;
793;SDS011;380;48.738;9.214;2023-05-10T02:38:12;0.55;;;0.20;;
793;SDS011;380;48.738;9.214;2023-05-10T02:40:39;0.28;;;0.10;;
793;SDS011;380;48.738;9.214;2023-05-10T02:43:07;0.22;;;0.13;;
793;SDS011;380;48.738;9.214;2023-05-10T02:45:34;0.60;;;0.20;;
793;SDS011;380;48.738;9.214;2023-05-10T02:48:01;0.17;;;0.10;;
793;SDS011;380;48.738;9.214;2023-05-10T02:50:28;0.17;;;0.10;;
793;SDS011;380;48.738;9.214;2023-05-10T02:52:56;3.75;;;0.30;;
793;SDS011;380;48.738;9.214;2023-05-10T02:55:26;0.55;;;0.20;;
793;SDS011;380;48.738;9.214;2023-05-10T02:57:54;0.28;;;0.10;;
793;SDS011;380;48.738;9.214;2023-05-10T03:00:22;0.20;;;0.00;;
793;SDS011;380;48.738;9.214;2023-05-10T03:02:49;0.40;;;0.38;;
793;SDS011;380;48.738;9.214;2023-05-10T03:05:15;0.25;;;0.15;;
793;SDS011;380;48.738;9.214;2023-05-10T03:07:41;0.40;;;0.10;;
793;SDS011;380;48.738;9.214;2023-05-10T03:10:07;0.35;;;0.13;;
793;SDS011;380;48.738;9.214;2023-05-10T03:15:22;1.13;;;0.32;;
793;SDS011;380;48.738;9.214;2023-05-10T03:18:00;0.30;;;0.20;;
793;SDS011;380;48.738;9.214;2023-05-10T03:23:00;0.32;;;0.22;;
793;SDS011;380;48.738;9.214;2023-05-10T03:25:28;0.28;;;0.17;;
793;SDS011;380;48.738;9.214;2023-05-10T03:27:55;0.80;;;0.40;;
793;SDS011;380;48.738;9.214;2023-05-10T03:30:21;0.95;;;0.38;;
793;SDS011;380;48.738;9.214;2023-05-10T03:32:47;1.20;;;0.60;;
793;SDS011;380;48.738;9.214;2023-05-10T03:35:13;1.17;;;0.50;;
793;SDS011;380;48.738;9.214;2023-05-10T03:37:39;0.65;;;0.30;;
793;SDS011;380;48.738;9.214;2023-05-10T03:40:06;0.95;;;0.50;;
793;SDS011;380;48.738;9.214;2023-05-10T03:42:32;0.90;;;0.40;;
793;SDS011;380;48.738;9.214;2023-05-10T03:44:58;0.57;;;0.30;;
793;SDS011;380;48.738;9.214;2023-05-10T03:47:24;0.93;;;0.40;;
793;SDS011;380;48.738;9.214;2023-05-10T03:49:50;1.73;;;0.70;;
793;SDS011;380;48.738;9.214;2023-05-10T03:52:15;0.43;;;0.32;;
793;SDS011;380;48.738;9.214;2023-05-10T03:54:41;1.65;;;0.55;;
793;SDS011;380;48.738;9.214;2023-05-10T03:57:07;1.23;;;0.55;;
793;SDS011;380;48.738;9.214;2023-05-10T03:59:34;2.03;;;0.73;;
793;SDS011;380;48.738;9.214;2023-05-10T04:02:00;1.30;;;0.60;;
793;SDS011;380;48.738;9.214;2023-05-10T04:04:26;1.48;;;0.60;;
793;SDS011;380;48.738;9.214;2023-05-10T04:06:52;0.93;;;0.38;;
793;SDS011;380;48.738;9.214;2023-05-10T04:09:18;0.93;;;0.50;;
793;SDS011;380;48.738;9.214;2023-05-10T04:11:44;2.92;;;0.70;;
793;SDS011;380;48.738;9.214;2023-05-10T04:14:10;5.20;;;0.60;;
793;SDS011;380;48.738;9.214;2023-05-10T04:16:36;1.20;;;0.40;;
793;SDS011;380;48.738;9.214;2023-05-10T04:19:02;0.95;;;0.45;;
793;SDS011;380;48.738;9.214;2023-05-10T04:21:28;0.90;;;0.38;;
793;SDS011;380;48.738;9.214;2023-05-10T04:23:55;1.20;;;0.70;;
793;SDS011;380;48.738;9.214;2023-05-10T04:26:21;1.23;;;0.68;;
793;SDS011;380;48.738;9.214;2023-05-10T04:28:47;0.80;;;0.32;;
793;SDS011;380;48.738;9.214;2023-05-10T04:31:13;2.38;;;0.40;;
793;SDS011;380;48.738;9.214;2023-05-10T04:33:39;1.15;;;0.50;;
793;SDS011;380;48.738;9.214;2023-05-10T04:36:05;1.42;;;1.10;;
793;SDS011;380;48.738;9.214;2023-05-10T04:38:31;2.83;;;0.68;;
793;SDS011;380;48.738;9.214;2023-05-10T04:41:06;1.88;;;0.75;;
793;SDS011;380;48.738;9.214;2023-05-10T04:43:32;1.45;;;0.82;;
793;SDS011;380;48.738;9.214;2023-05-10T04:45:58;1.27;;;0.65;;
793;SDS011;380;48.738;9.214;2023-05-10T04:48:24;1.00;;;0.40;;
793;SDS011;380;48.738;9.214;2023-05-10T04:50:50;1.10;;;0.45;;
793;SDS011;380;48.738;9.214;2023-05-10T04:53:16;1.30;;;0.70;;
793;SDS011;380;48.738;9.214;2023-05-10T04:55:42;1.05;;;0.60;;
793;SDS011;380;48.738;9.214;2023-05-10T04:58:08;1.05;;;0.47;;
793;SDS011;380;48.738;9.214;2023-05-10T05:00:37;0.88;;;0.50;;
793;SDS011;380;48.738;9.214;2023-05-10T05:03:03;2.10;;;0.60;;
793;SDS011;380;48.738;9.214;2023-05-10T05:05:30;1.25;;;0.60;;
793;SDS011;380;48.738;9.214;2023-05-10T05:07:56;1.40;;;0.60;;
793;SDS011;380;48.738;9.214;2023-05-10T05:10:21;1.05;;;0.60;;
793;SDS011;380;48.738;9.214;2023-05-10T05:12:47;0.70;;;0.45;;
793;SDS011;380;48.738;9.214;2023-05-10T05:15:13;1.98;;;0.70;;
793;SDS011;380;48.738;9.214;2023-05-10T05:17:41;1.25;;;0.55;;
793;SDS011;380;48.738;9.214;2023-05-10T05:20:08;1.27;;;0.77;;
793;SDS011;380;48.738;9.214;2023-05-10T05:22:35;1.30;;;0.60;;
793;SDS011;380;48.738;9.214;2023-05-10T05:25:01;2.38;;;0.90;;
793;SDS011;380;48.738;9.214;2023-05-10T05:27:28;1.60;;;0.68;;
793;SDS011;380;48.738;9.214;2023-05-10T05:29:55;1.27;;;0.80;;
793;SDS011;380;48.738;9.214;2023-05-10T05:32:21;0.90;;;0.43;;
793;SDS011;380;48.738;9.214;2023-05-10T05:34:47;5.22;;;0.80;;
793;SDS011;380;48.738;9.214;2023-05-10T05:37:14;3.47;;;0.40;;
793;SDS011;380;48.738;9.214;2023-05-10T05:39:40;0.98;;;0.40;;
793;SDS011;380;48.738;9.214;2023-05-10T05:42:06;1.23;;;0.68;;
793;SDS011;380;48.738;9.214;2023-05-10T05:44:32;0.98;;;0.50;;
793;SDS011;380;48.738;9.214;2023-05-10T05:46:58;1.27;;;0.65;;
793;SDS011;380;48.738;9.214;2023-05-10T05:49:24;1.63;;;0.85;;
793;SDS011;380;48.738;9.214;2023-05-10T05:51:50;1.70;;;0.68;;
793;SDS011;380;48.738;9.214;2023-05-10T05:54:15;1.50;;;0.70;;
793;SDS011;380;48.738;9.214;2023-05-10T05:56:41;1.45;;;0.57;;
793;SDS011;380;48.738;9.214;2023-05-10T05:59:09;3.08;;;0.90;;
793;SDS011;380;48.738;9.214;2023-05-10T06:01:35;1.27;;;0.70;;
793;SDS011;380;48.738;9.214;2023-05-10T06:04:01;1.85;;;1.05;;
793;SDS011;380;48.738;9.214;2023-05-10T06:06:27;1.05;;;0.52;;
793;SDS011;380;48.738;9.214;2023-05-10T06:08:53;1.45;;;0.63;;
793;SDS011;380;48.738;9.214;2023-05-10T06:11:19;1.55;;;0.75;;
793;SDS011;380;48.738;9.214;2023-05-10T06:13:46;1.40;;;0.90;;
793;SDS011;380;48.738;9.214;2023-05-10T06:16:12;1.17;;;0.70;;
793;SDS011;380;48.738;9.214;2023-05-10T06:18:38;1.83;;;0.85;;
793;SDS011;380;48.738;9.214;2023-05-10T06:21:04;1.60;;;0.75;;
793;SDS011;380;48.738;9.214;2023-05-10T06:23:30;1.70;;;1.00;;
793;SDS011;380;48.738;9.214;2023-05-10T06:25:56;1.77;;;1.05;;
793;SDS011;380;48.738;9.214;2023-05-10T06:28:22;1.25;;;0.70;;
793;SDS011;380;48.738;9.214;2023-05-10T06:30:48;1.65;;;0.80;;
793;SDS011;380;48.738;9.214;2023-05-10T06:33:14;2.67;;;0.70;;
793;SDS011;380;48.738;9.214;2023-05-10T06:35:41;1.05;;;0.50;;
793;SDS011;380;48.738;9.214;2023-05-10T06:38:07;1.45;;;0.70;;
793;SDS011;380;48.738;9.214;2023-05-10T06:40:33;1.33;;;0.68;;
793;SDS011;380;48.738;9.214;2023-05-10T06:42:59;1.27;;;0.65;;
793;SDS011;380;48.738;9.214;2023-05-10T06:45:25;4.18;;;1.25;;
793;SDS011;380;48.738;9.214;2023-05-10T06:47:51;1.27;;;0.60;;
793;SDS011;380;48.738;9.214;2023-05-10T06:50:17;1.67;;;0.90;;
793;SDS011;380;48.738;9.214;2023-05-10T06:52:43;2.00;;;0.98;;
793;SDS011;380;48.738;9.214;2023-05-10T06:55:09;1.65;;;0.73;;
793;SDS011;380;48.738;9.214;2023-05-10T06:57:35;2.35;;;0.98;;
793;SDS011;380;48.738;9.214;2023-05-10T07:00:01;2.05;;;0.98;;
793;SDS011;380;48.738;9.214;2023-05-10T07:02:29;3.45;;;1.05;;
793;SDS011;380;48.738;9.214;2023-05-10T07:04:55;2.00;;;0.95;;
793;SDS011;380;48.738;9.214;2023-05-10T07:07:21;1.55;;;0.88;;
793;SDS011;380;48.738;9.214;2023-05-10T07:09:47;1.35;;;0.85;;
793;SDS011;380;48.738;9.214;2023-05-10T07:12:14;1.60;;;0.90;;
793;SDS011;380;48.738;9.214;2023-05-10T07:14:40;1.35;;;0.75;;
793;SDS011;380;48.738;9.214;2023-05-10T07:17:06;1.65;;;0.85;;
793;SDS011;380;48.738;9.214;2023-05-10T07:19:32;1.90;;;0.80;;
793;SDS011;380;48.738;9.214;2023-05-10T07:21:58;1.77;;;0.88;;
793;SDS011;380;48.738;9.214;2023-05-10T07:24:25;1.65;;;0.73;;
793;SDS011;380;48.738;9.214;2023-05-10T07:26:50;1.63;;;0.80;;
793;SDS011;380;48.738;9.214;2023-05-10T07:29:16;1.40;;;0.70;;
793;SDS011;380;48.738;9.214;2023-05-10T07:31:42;1.90;;;0.98;;
793;SDS011;380;48.738;9.214;2023-05-10T07:34:08;1.25;;;0.70;;
793;SDS011;380;48.738;9.214;2023-05-10T07:36:34;1.55;;;1.00;;
793;SDS011;380;48.738;9.214;2023-05-10T07:39:00;1.38;;;0.63;;
793;SDS011;380;48.738;9.214;2023-05-10T07:41:27;1.17;;;0.63;;
793;SDS011;380;48.738;9.214;2023-05-10T07:43:53;1.25;;;0.70;;
793;SDS011;380;48.738;9.214;2023-05-10T07:46:18;1.35;;;0.82;;
793;SDS011;380;48.738;9.214;2023-05-10T07:48:45;2.65;;;0.85;;
793;SDS011;380;48.738;9.214;2023-05-10T07:51:11;1.48;;;0.68;;
793;SDS011;380;48.738;9.214;2023-05-10T07:53:37;1.52;;;0.68;;
793;SDS011;380;48.738;9.214;2023-05-10T07:58:48;1.75;;;1.00;;
793;SDS011;380;48.738;9.214;2023-05-10T08:01:14;1.30;;;0.70;;
793;SDS011;380;48.738;9.214;2023-05-10T08:03:40;1.48;;;0.85;;
793;SDS011;380;48.738;9.214;2023-05-10T08:06:06;1.20;;;0.60;;
793;SDS011;380;48.738;9.214;2023-05-10T08:08:32;1.77;;;0.65;;
793;SDS011;380;48.738;9.214;2023-05-10T08:10:58;1.10;;;0.50;;
793;SDS011;380;48.738;9.214;2023-05-10T08:13:24;1.23;;;0.50;;
793;SDS011;380;48.738;9.214;2023-05-10T08:15:50;0.90;;;0.50;;
793;SDS011;380;48.738;9.214;2023-05-10T08:18:18;1.85;;;0.52;;
793;SDS011;380;48.738;9.214;2023-05-10T08:20:44;1.08;;;0.63;;
793;SDS011;380;48.738;9.214;2023-05-10T08:23:12;0.95;;;0.45;;
793;SDS011;380;48.738;9.214;2023-05-10T08:25:38;1.38;;;0.60;;
793;SDS011;380;48.738;9.214;2023-05-10T08:28:05;1.45;;;0.60;;
793;SDS011;380;48.738;9.214;2023-05-10T08:30:30;1.00;;;0.45;;
793;SDS011;380;48.738;9.214;2023-05-10T08:32:56;1.45;;;0.68;;
793;SDS011;380;48.738;9.214;2023-05-10T08:35:22;1.50;;;0.70;;
793;SDS011;380;48.738;9.214;2023-05-10T08:37:49;0.90;;;0.50;;
793;SDS011;380;48.738;9.214;2023-05-10T08:40:15;1.65;;;0.40;;
793;SDS011;380;48.738;9.214;2023-05-10T08:42:43;1.08;;;0.55;;
793;SDS011;380;48.738;9.214;2023-05-10T08:45:11;0.77;;;0.40;;
793;SDS011;380;48.738;9.214;2023-05-10T08:47:37;0.77;;;0.38;;
793;SDS011;380;48.738;9.214;2023-05-10T08:50:04;0.50;;;0.30;;
793;SDS011;380;48.738;9.214;2023-05-10T08:52:30;0.70;;;0.30;;
793;SDS011;380;48.738;9.214;2023-05-10T08:54:58;2.05;;;0.60;;
793;SDS011;380;48.738;9.214;2023-05-10T08:57:24;0.82;;;0.35;;
793;SDS011;380;48.738;9.214;2023-05-10T08:59:50;1.88;;;0.38;;
793;SDS011;380;48.738;9.214;2023-05-10T09:02:16;0.82;;;0.40;;
793;SDS011;380;48.738;9.214;2023-05-10T09:04:43;0.75;;;0.30;;
793;SDS011;380;48.738;9.214;2023-05-10T09:07:09;1.75;;;0.63;;
793;SDS011;380;48.738;9.214;2023-05-10T09:09:36;0.95;;;0.40;;
793;SDS011;380;48.738;9.214;2023-05-10T09:12:02;1.15;;;0.50;;
793;SDS011;380;48.738;9.214;2023-05-10T09:14:28;0.77;;;0.35;;
793;SDS011;380;48.738;9.214;2023-05-10T09:16:54;0.70;;;0.30;;
793;SDS011;380;48.738;9.214;2023-05-10T09:19:20;1.15;;;0.38;;
793;SDS011;380;48.738;9.214;2023-05-10T09:21:46;1.83;;;0.57;;
793;SDS011;380;48.738;9.214;2023-05-10T09:24:12;0.73;;;0.47;;
793;SDS011;380;48.738;9.214;2023-05-10T09:26:48;1.48;;;0.70;;
793;SDS011;380;48.738;9.214;2023-05-10T09:29:14;0.98;;;0.40;;
793;SDS011;380;48.738;9.214;2023-05-10T09:31:49;0.30;;;0.20;;
793;SDS011;380;48.738;9.214;2023-05-10T09:34:19;0.75;;;0.40;;
793;SDS011;380;48.738;9.214;2023-05-10T09:36:56;0.52;;;0.30;;
793;SDS011;380;48.738;9.214;2023-05-10T09:39:32;1.27;;;0.70;;
793;SDS011;380;48.738;9.214;2023-05-10T09:41:59;0.68;;;0.30;;
793;SDS011;380;48.738;9.214;2023-05-10T09:44:26;1.95;;;0.35;;
793;SDS011;380;48.738;9.214;2023-05-10T09:46:52;1.67;;;0.50;;
793;SDS011;380;48.738;9.214;2023-05-10T09:49:19;0.47;;;0.20;;
793;SDS011;380;48.738;9.214;2023-05-10T09:51:45;0.88;;;0.50;;
793;SDS011;380;48.738;9.214;2023-05-10T09:54:12;1.08;;;0.40;;
793;SDS011;380;48.738;9.214;2023-05-10T09:56:38;0.40;;;0.20;;
793;SDS011;380;48.738;9.214;2023-05-10T09:59:05;1.38;;;0.40;;
793;SDS011;380;48.738;9.214;2023-05-10T10:01:31;0.65;;;0.30;;
793;SDS011;380;48.738;9.214;2023-05-10T10:03:57;0.70;;;0.22;;
793;SDS011;380;48.738;9.214;2023-05-10T10:06:24;0.63;;;0.30;;
793;SDS011;380;48.738;9.214;2023-05-10T10:08:50;0.93;;;0.40;;
793;SDS011;380;48.738;9.214;2023-05-10T10:11:17;1.10;;;0.20;;
793;SDS011;380;48.738;9.214;2023-05-10T10:13:43;0.98;;;0.20;;
793;SDS011;380;48.738;9.214;2023-05-10T10:16:09;0.90;;;0.40;;
793;SDS011;380;48.738;9.214;2023-05-10T10:18:38;0.65;;;0.38;;
793;SDS011;380;48.738;9.214;2023-05-10T10:21:05;1.17;;;0.47;;
793;SDS011;380;48.738;9.214;2023-05-10T10:23:31;0.22;;;0.10;;
793;SDS011;380;48.738;9.214;2023-05-10T10:25:57;0.50;;;0.20;;
793;SDS011;380;48.738;9.214;2023-05-10T10:28:30;0.38;;;0.20;;
793;SDS011;380;48.738;9.214;2023-05-10T10:30:59;0.52;;;0.20;;
793;SDS011;380;48.738;9.214;2023-05-10T10:33:36;0.65;;;0.20;;
793;SDS011;380;48.738;9.214;2023-05-10T10:36:05;1.55;;;0.60;;
793;SDS011;380;48.738;9.214;2023-05-10T10:41:32;1.38;;;0.38;;
793;SDS011;380;48.738;9.214;2023-05-10T10:47:04;0.45;;;0.20;;
793;SDS011;380;48.738;9.214;2023-05-10T10:49:31;0.28;;;0.20;;
793;SDS011;380;48.738;9.214;2023-05-10T10:52:12;0.70;;;0.25;;
793;SDS011;380;48.738;9.214;2023-05-10T10:54:39;1.13;;;0.30;;
793;SDS011;380;48.738;9.214;2023-05-10T10:57:11;0.75;;;0.30;;
793;SDS011;380;48.738;9.214;2023-05-10T10:59:41;0.65;;;0.30;;
793;SDS011;380;48.738;9.214;2023-05-10T11:04:55;1.05;;;0.40;;
793;SDS011;380;48.738;9.214;2023-05-10T11:07:21;1.00;;;0.40;;
793;SDS011;380;48.738;9.214;2023-05-10T11:09:48;0.55;;;0.22;;
793;SDS011;380;48.738;9.214;2023-05-10T11:12:14;3.30;;;0.25;;
793;SDS011;380;48.738;9.214;2023-05-10T11:14:40;0.22;;;0.13;;
793;SDS011;380;48.738;9.214;2023-05-10T11:17:27;0.63;;;0.28;;
793;SDS011;380;48.738;9.214;2023-05-10T11:20:07;0.52;;;0.20;;
793;SDS011;380;48.738;9.214;2023-05-10T11:22:51;0.17;;;0.10;;
793;SDS011;380;48.738;9.214;2023-05-10T11:25:18;0.63;;;0.32;;
793;SDS011;380;48.738;9.214;2023-05-10T11:27:44;0.68;;;0.38;;
793;SDS011;380;48.738;9.214;2023-05-10T11:30:11;0.90;;;0.40;;
793;SDS011;380;48.738;9.214;2023-05-10T11:32:37;0.70;;;0.30;;
793;SDS011;380;48.738;9.214;2023-05-10T11:35:10;0.52;;;0.20;;
793;SDS011;380;48.738;9.214;2023-05-10T11:37:36;1.35;;;0.55;;
793;SDS011;380;48.738;9.214;2023-05-10T11:40:06;0.80;;;0.40;;
793;SDS011;380;48.738;9.214;2023-05-10T11:42:32;0.82;;;0.25;;
793;SDS011;380;48.738;9.214;2023-05-10T11:44:59;0.47;;;0.20;;
793;SDS011;380;48.738;9.214;2023-05-10T11:47:26;1.58;;;0.55;;
793;SDS011;380;48.738;9.214;2023-05-10T11:49:51;0.68;;;0.40;;
793;SDS011;380;48.738;9.214;2023-05-10T11:52:18;1.08;;;0.60;;
793;SDS011;380;48.738;9.214;2023-05-10T11:54:51;1.08;;;0.45;;
793;SDS011;380;48.738;9.214;2023-05-10T11:57:20;0.70;;;0.20;;
793;SDS011;380;48.738;9.214;2023-05-10T11:59:46;0.52;;;0.30;;
793;SDS011;380;48.738;9.214;2023-05-10T12:02:13;0.75;;;0.25;;
793;SDS011;380;48.738;9.214;2023-05-10T12:04:39;0.52;;;0.30;;
793;SDS011;380;48.738;9.214;2023-05-10T12:07:06;0.70;;;0.30;;
793;SDS011;380;48.738;9.214;2023-05-10T12:09:32;1.52;;;0.30;;
793;SDS011;380;48.738;9.214;2023-05-10T12:11:58;1.52;;;0.50;;
793;SDS011;380;48.738;9.214;2023-05-10T12:14:24;0.75;;;0.40;;
793;SDS011;380;48.738;9.214;2023-05-10T12:16:50;1.13;;;0.70;;
793;SDS011;380;48.738;9.214;2023-05-10T12:19:19;0.82;;;0.47;;
793;SDS011;380;48.738;9.214;2023-05-10T12:21:46;1.40;;;0.60;;
793;SDS011;380;48.738;9.214;2023-05-10T12:24:12;1.30;;;0.80;;
793;SDS011;380;48.738;9.214;2023-05-10T12:26:41;2.30;;;1.25;;
793;SDS011;380;48.738;9.214;2023-05-10T12:31:53;0.85;;;0.40;;
793;SDS011;380;48.738;9.214;2023-05-10T12:34:23;1.45;;;0.50;;
793;SDS011;380;48.738;9.214;2023-05-10T12:36:52;0.85;;;0.50;;
793;SDS011;380;48.738;9.214;2023-05-10T12:39:18;0.57;;;0.30;;
793;SDS011;380;48.738;9.214;2023-05-10T12:41:44;1.00;;;0.40;;
793;SDS011;380;48.738;9.214;2023-05-10T12:44:10;1.00;;;0.47;;
793;SDS011;380;48.738;9.214;2023-05-10T12:46:36;1.40;;;0.60;;
793;SDS011;380;48.738;9.214;2023-05-10T12:49:02;1.88;;;0.45;;
793;SDS011;380;48.738;9.214;2023-05-10T12:51:28;0.98;;;0.60;;
793;SDS011;380;48.738;9.214;2023-05-10T12:53:55;1.48;;;0.70;;
793;SDS011;380;48.738;9.214;2023-05-10T12:56:21;1.85;;;0.55;;
793;SDS011;380;48.738;9.214;2023-05-10T12:58:47;1.90;;;0.60;;
793;SDS011;380;48.738;9.214;2023-05-10T13:01:13;0.73;;;0.30;;
793;SDS011;380;48.738;9.214;2023-05-10T13:03:39;1.20;;;0.63;;
793;SDS011;380;48.738;9.214;2023-05-10T13:06:06;4.15;;;0.68;;
793;SDS011;380;48.738;9.214;2023-05-10T13:08:32;1.58;;;0.65;;
793;SDS011;380;48.738;9.214;2023-05-10T13:11:01;2.47;;;0.52;;
793;SDS011;380;48.738;9.214;2023-05-10T13:13:27;0.82;;;0.43;;
793;SDS011;380;48.738;9.214;2023-05-10T13:15:53;1.50;;;0.70;;
793;SDS011;380;48.738;9.214;2023-05-10T13:18:19;1.40;;;0.70;;
793;SDS011;380;48.738;9.214;2023-05-10T13:20:45;3.38;;;0.85;;
793;SDS011;380;48.738;9.214;2023-05-10T13:23:11;0.80;;;0.50;;
793;SDS011;380;48.738;9.214;2023-05-10T13:25:37;1.42;;;0.52;;
793;SDS011;380;48.738;9.214;2023-05-10T13:28:03;1.67;;;0.50;;
793;SDS011;380;48.738;9.214;2023-05-10T13:30:29;1.40;;;0.63;;
793;SDS011;380;48.738;9.214;2023-05-10T13:32:55;1.55;;;0.57;;
793;SDS011;380;48.738;9.214;2023-05-10T13:35:21;1.00;;;0.43;;
793;SDS011;380;48.738;9.214;2023-05-10T13:37:47;0.57;;;0.30;;
793;SDS011;380;48.738;9.214;2023-05-10T13:40:13;1.85;;;0.55;;
793;SDS011;380;48.738;9.214;2023-05-10T13:42:40;1.30;;;0.50;;
793;SDS011;380;48.738;9.214;2023-05-10T13:45:06;0.50;;;0.25;;
793;SDS011;380;48.738;9.214;2023-05-10T13:47:32;1.70;;;0.50;;
793;SDS011;380;48.738;9.214;2023-05-10T13:49:58;3.22;;;0.43;;
793;SDS011;380;48.738;9.214;2023-05-10T13:52:25;2.10;;;0.52;;
793;SDS011;380;48.738;9.214;2023-05-10T13:54:51;0.95;;;0.38;;
793;SDS011;380;48.738;9.214;2023-05-10T13:57:19;0.85;;;0.45;;
793;SDS011;380;48.738;9.214;2023-05-10T13:59:45;0.90;;;0.40;;
793;SDS011;380;48.738;9.214;2023-05-10T14:02:12;1.67;;;0.85;;
793;SDS011;380;48.738;9.214;2023-05-10T14:04:38;1.05;;;0.45;;
793;SDS011;380;48.738;9.214;2023-05-10T14:07:04;1.48;;;0.50;;
793;SDS011;380;48.738;9.214;2023-05-10T14:09:30;0.90;;;0.40;;
793;SDS011;380;48.738;9.214;2023-05-10T14:11:56;0.95;;;0.47;;
793;SDS011;380;48.738;9.214;2023-05-10T14:14:22;1.20;;;0.43;;
793;SDS011;380;48.738;9.214;2023-05-10T14:16:48;1.13;;;0.43;;
793;SDS011;380;48.738;9.214;2023-05-10T14:19:14;0.85;;;0.38;;
793;SDS011;380;48.738;9.214;2023-05-10T14:21:40;1.00;;;0.60;;
793;SDS011;380;48.738;9.214;2023-05-10T14:24:06;0.60;;;0.30;;
793;SDS011;380;48.738;9.214;2023-05-10T14:26:32;0.52;;;0.32;;
793;SDS011;380;48.738;9.214;2023-05-10T14:28:59;2.63;;;0.52;;
793;SDS011;380;48.738;9.214;2023-05-10T14:31:25;1.42;;;0.65;;
793;SDS011;380;48.738;9.214;2023-05-10T14:33:52;1.15;;;0.55;;
793;SDS011;380;48.738;9.214;2023-05-10T14:36:18;3.40;;;0.63;;
793;SDS011;380;48.738;9.214;2023-05-10T14:38:44;1.27;;;0.50;;
793;SDS011;380;48.738;9.214;2023-05-10T14:41:10;0.68;;;0.40;;
793;SDS011;380;48.738;9.214;2023-05-10T14:43:39;1.42;;;0.68;;
793;SDS011;380;48.738;9.214;2023-05-10T14:46:05;4.38;;;0.55;;
793;SDS011;380;48.738;9.214;2023-05-10T14:48:31;1.60;;;0.50;;
793;SDS011;380;48.738;9.214;2023-05-10T14:50:57;0.73;;;0.40;;
793;SDS011;380;48.738;9.214;2023-05-10T14:53:23;0.80;;;0.35;;
793;SDS011;380;48.738;9.214;2023-05-10T14:55:49;0.45;;;0.25;;
793;SDS011;380;48.738;9.214;2023-05-10T14:58:15;2.15;;;0.63;;
793;SDS011;380;48.738;9.214;2023-05-10T15:00:41;1.05;;;0.30;;
793;SDS011;380;48.738;9.214;2023-05-10T15:03:08;1.02;;;0.35;;
793;SDS011;380;48.738;9.214;2023-05-10T15:05:34;2.20;;;0.85;;
793;SDS011;380;48.738;9.214;2023-05-10T15:08:02;1.27;;;0.43;;
793;SDS011;380;48.738;9.214;2023-05-10T15:10:28;0.73;;;0.32;;
793;SDS011;380;48.738;9.214;2023-05-10T15:12:54;0.93;;;0.43;;
793;SDS011;380;48.738;9.214;2023-05-10T15:15:20;0.30;;;0.13;;
793;SDS011;380;48.738;9.214;2023-05-10T15:17:47;1.35;;;0.60;;
793;SDS011;380;48.738;9.214;2023-05-10T15:20:13;1.88;;;0.63;;
793;SDS011;380;48.738;9.214;2023-05-10T15:22:39;2.30;;;0.55;;
793;SDS011;380;48.738;9.214;2023-05-10T15:25:05;1.05;;;0.45;;
793;SDS011;380;48.738;9.214;2023-05-10T15:27:31;1.67;;;0.40;;
793;SDS011;380;48.738;9.214;2023-05-10T15:29:57;1.98;;;0.70;;
793;SDS011;380;48.738;9.214;2023-05-10T15:32:24;0.85;;;0.50;;
793;SDS011;380;48.738;9.214;2023-05-10T15:34:50;0.70;;;0.30;;
793;SDS011;380;48.738;9.214;2023-05-10T15:37:16;2.47;;;0.55;;
793;SDS011;380;48.738;9.214;2023-05-10T15:39:42;0.95;;;0.43;;
793;SDS011;380;48.738;9.214;2023-05-10T15:42:08;1.30;;;0.65;;
793;SDS011;380;48.738;9.214;2023-05-10T15:44:34;1.05;;;0.50;;
793;SDS011;380;48.738;9.214;2023-05-10T15:47:03;0.40;;;0.30;;
793;SDS011;380;48.738;9.214;2023-05-10T15:49:29;0.88;;;0.30;;
793;SDS011;380;48.738;9.214;2023-05-10T15:51:55;0.82;;;0.40;;
793;SDS011;380;48.738;9.214;2023-05-10T15:54:21;0.75;;;0.32;;
793;SDS011;380;48.738;9.214;2023-05-10T15:56:47;0.38;;;0.20;;
793;SDS011;380;48.738;9.214;2023-05-10T15:59:13;0.98;;;0.50;;
793;SDS011;380;48.738;9.214;2023-05-10T16:01:39;1.05;;;0.30;;
793;SDS011;380;48.738;9.214;2023-05-10T16:04:05;0.73;;;0.30;;
793;SDS011;380;48.738;9.214;2023-05-10T16:06:31;1.20;;;0.63;;
793;SDS011;380;48.738;9.214;2023-05-10T16:08:58;0.57;;;0.32;;
793;SDS011;380;48.738;9.214;2023-05-10T16:11:24;0.88;;;0.30;;